Lecanto, Florida
Current Conditions -  °F | °C
As of 6:55 PM on Saturday 25 Oct 2014 (Local Time) from KCGC Reporting Station
Clear Clear  
Wind Chill: 20°   Ceiling: Unl
Heat Index: 20°   Visibility: 10mi
Dew Point: 13°   Wind: 3mph
Humidity: 64%   Direction: 290°WNW
Pressure: 29.97"   Gusts: NA
Location:  28.86°N, 82.49°W
Report Text: KCGC 252255Z AUTO 29003KT 10SM CLR 20/13 A2997 RMK AO2 PWINO
Loading
Personal Weather Stations






























Interactive Weather Map
Tropical Storm Tracking
New forecast layout! Learn more

10-Day Weather Forecast

Advertisements
Track Severe Weather on mobile